SWA3297 KPBI-KMCO
Flight info
| Callsign | SWA3297 |
|---|---|
| Flight time | 0h 29m |
| Altitude | 14000 |
| Route | TBIRD7 CHEFS MUNGI1 |
| Aircraft | B738/M-SDE2E3FGHIRWXY/LB1 |
Departure
| Time | 2026-05-04 22:01 |
|---|---|
| Airport | Palm Beach International Airport (KPBI) |
Arrival
| Time | 2026-05-04 22:31 |
|---|---|
| Airport | Orlando International Airport (KMCO) |
| Time | Latitude | Longitude | Altitude | Speed | Heading |
|---|---|---|---|---|---|
| 2026-05-04 21:33 | 26.68684 | -80.09242 | 25 ft | 0 kts | 317° |
| 2026-05-04 21:49 | 26.68680 | -80.09238 | 30 ft | 4 kts | 317° |
| 2026-05-04 21:49 | 26.68661 | -80.09216 | 30 ft | 4 kts | 308° |
| 2026-05-04 21:50 | 26.68647 | -80.09192 | 29 ft | 4 kts | 291° |
| 2026-05-04 21:50 | 26.68643 | -80.09165 | 29 ft | 4 kts | 242° |
| 2026-05-04 21:50 | 26.68646 | -80.09159 | 28 ft | 0 kts | 227° |
| 2026-05-04 21:54 | 26.68636 | -80.09171 | 28 ft | 5 kts | 227° |
| 2026-05-04 21:54 | 26.68599 | -80.09216 | 27 ft | 11 kts | 227° |
| 2026-05-04 21:54 | 26.68545 | -80.09282 | 27 ft | 12 kts | 227° |
| 2026-05-04 21:55 | 26.68491 | -80.09348 | 26 ft | 11 kts | 227° |
| 2026-05-04 21:55 | 26.68425 | -80.09382 | 26 ft | 11 kts | 167° |
| 2026-05-04 21:55 | 26.68372 | -80.09424 | 26 ft | 11 kts | 260° |
| 2026-05-04 21:55 | 26.68374 | -80.09513 | 25 ft | 13 kts | 272° |
| 2026-05-04 21:56 | 26.68379 | -80.09621 | 28 ft | 14 kts | 272° |
| 2026-05-04 21:56 | 26.68384 | -80.09732 | 24 ft | 14 kts | 273° |
| 2026-05-04 21:56 | 26.68388 | -80.09838 | 24 ft | 13 kts | 273° |
| 2026-05-04 21:56 | 26.68393 | -80.09939 | 24 ft | 13 kts | 272° |
| 2026-05-04 21:57 | 26.68397 | -80.10036 | 24 ft | 13 kts | 272° |
| 2026-05-04 21:57 | 26.68401 | -80.10133 | 24 ft | 12 kts | 273° |
| 2026-05-04 21:57 | 26.68405 | -80.10225 | 24 ft | 12 kts | 272° |
| 2026-05-04 21:57 | 26.68409 | -80.10316 | 24 ft | 12 kts | 272° |
| 2026-05-04 21:58 | 26.68413 | -80.10409 | 24 ft | 13 kts | 273° |
| 2026-05-04 21:58 | 26.68419 | -80.10532 | 24 ft | 18 kts | 273° |
| 2026-05-04 21:58 | 26.68425 | -80.10668 | 24 ft | 17 kts | 272° |
| 2026-05-04 21:58 | 26.68429 | -80.10777 | 24 ft | 6 kts | 273° |
| 2026-05-04 21:59 | 26.68428 | -80.10797 | 24 ft | 0 kts | 260° |
| 2026-05-04 22:00 | 26.68418 | -80.10811 | 26 ft | 7 kts | 221° |
| 2026-05-04 22:00 | 26.68360 | -80.10820 | 26 ft | 10 kts | 164° |
| 2026-05-04 22:00 | 26.68318 | -80.10715 | 26 ft | 37 kts | 95° |
| 2026-05-04 22:01 | 26.68306 | -80.10385 | 24 ft | 90 kts | 91° |
| 2026-05-04 22:01 | 26.68286 | -80.09763 | 32 ft | 136 kts | 89° |
| 2026-05-04 22:01 | 26.68222 | -80.08678 | 507 ft | 154 kts | 92° |
| 2026-05-04 22:01 | 26.68153 | -80.07463 | 1302 ft | 156 kts | 89° |
| 2026-05-04 22:02 | 26.68112 | -80.06275 | 2188 ft | 158 kts | 88° |
| 2026-05-04 22:02 | 26.68332 | -80.04954 | 2550 ft | 188 kts | 67° |
| 2026-05-04 22:02 | 26.68970 | -80.03573 | 2827 ft | 213 kts | 63° |
| 2026-05-04 22:02 | 26.69674 | -80.02062 | 3366 ft | 224 kts | 63° |
| 2026-05-04 22:03 | 26.70426 | -80.00445 | 3655 ft | 246 kts | 63° |
| 2026-05-04 22:03 | 26.71314 | -79.98774 | 4415 ft | 252 kts | 50° |
| 2026-05-04 22:03 | 26.72742 | -79.97579 | 5249 ft | 263 kts | 27° |
| 2026-05-04 22:03 | 26.74544 | -79.97017 | 5990 ft | 273 kts | 9° |
| 2026-05-04 22:04 | 26.76435 | -79.96773 | 6814 ft | 279 kts | 358° |
| 2026-05-04 22:04 | 26.78296 | -79.97350 | 7584 ft | 279 kts | 326° |
| 2026-05-04 22:04 | 26.79663 | -79.98816 | 8511 ft | 272 kts | 301° |
| 2026-05-04 22:04 | 26.80474 | -80.00702 | 9509 ft | 268 kts | 288° |
| 2026-05-04 22:05 | 26.81082 | -80.02705 | 10280 ft | 273 kts | 285° |
| 2026-05-04 22:05 | 26.81700 | -80.04794 | 10526 ft | 298 kts | 286° |
| 2026-05-04 22:05 | 26.82389 | -80.07097 | 10721 ft | 322 kts | 287° |
| 2026-05-04 22:05 | 26.83123 | -80.09525 | 11168 ft | 334 kts | 287° |
| 2026-05-04 22:06 | 26.83884 | -80.12015 | 11877 ft | 338 kts | 287° |
| 2026-05-04 22:06 | 26.84649 | -80.14499 | 12558 ft | 341 kts | 288° |
| 2026-05-04 22:06 | 26.85424 | -80.17016 | 12945 ft | 344 kts | 288° |
| 2026-05-04 22:06 | 26.86222 | -80.19604 | 12992 ft | 358 kts | 288° |
| 2026-05-04 22:07 | 26.87046 | -80.22280 | 13006 ft | 374 kts | 288° |
| 2026-05-04 22:07 | 26.87904 | -80.25067 | 13004 ft | 378 kts | 288° |
| 2026-05-04 22:07 | 26.88760 | -80.27841 | 12993 ft | 375 kts | 288° |
| 2026-05-04 22:07 | 26.89610 | -80.30606 | 12996 ft | 375 kts | 288° |
| 2026-05-04 22:08 | 26.90498 | -80.33368 | 12998 ft | 376 kts | 292° |
| 2026-05-04 22:08 | 26.91961 | -80.35779 | 13000 ft | 383 kts | 311° |
| 2026-05-04 22:08 | 26.94067 | -80.37646 | 12986 ft | 389 kts | 328° |
| 2026-05-04 22:08 | 26.96535 | -80.38850 | 13002 ft | 391 kts | 336° |
| 2026-05-04 22:09 | 26.99107 | -80.39921 | 12989 ft | 392 kts | 336° |
| 2026-05-04 22:09 | 27.01671 | -80.40976 | 12989 ft | 391 kts | 336° |
| 2026-05-04 22:09 | 27.04187 | -80.42026 | 12990 ft | 390 kts | 336° |
| 2026-05-04 22:09 | 27.06729 | -80.43105 | 12991 ft | 389 kts | 335° |
| 2026-05-04 22:10 | 27.09260 | -80.44193 | 12993 ft | 389 kts | 335° |
| 2026-05-04 22:10 | 27.11804 | -80.45290 | 12993 ft | 389 kts | 335° |
| 2026-05-04 22:10 | 27.14289 | -80.46390 | 12995 ft | 388 kts | 332° |
| 2026-05-04 22:10 | 27.16505 | -80.48071 | 13002 ft | 382 kts | 313° |
| 2026-05-04 22:11 | 27.18250 | -80.50315 | 13006 ft | 382 kts | 307° |
| 2026-05-04 22:11 | 27.19922 | -80.52626 | 12999 ft | 384 kts | 307° |
| 2026-05-04 22:11 | 27.21602 | -80.54961 | 13005 ft | 385 kts | 307° |
| 2026-05-04 22:11 | 27.23299 | -80.57304 | 13005 ft | 386 kts | 307° |
| 2026-05-04 22:12 | 27.25011 | -80.59652 | 13003 ft | 386 kts | 308° |
| 2026-05-04 22:12 | 27.26696 | -80.61949 | 12998 ft | 386 kts | 308° |
| 2026-05-04 22:12 | 27.28413 | -80.64284 | 12990 ft | 385 kts | 308° |
| 2026-05-04 22:12 | 27.30130 | -80.66617 | 12984 ft | 384 kts | 308° |
| 2026-05-04 22:13 | 27.31816 | -80.68907 | 12989 ft | 383 kts | 308° |
| 2026-05-04 22:13 | 27.33518 | -80.71222 | 12987 ft | 384 kts | 308° |
| 2026-05-04 22:13 | 27.35228 | -80.73550 | 12982 ft | 383 kts | 308° |
| 2026-05-04 22:13 | 27.37029 | -80.75717 | 12966 ft | 386 kts | 319° |
| 2026-05-04 22:14 | 27.39383 | -80.77212 | 12995 ft | 390 kts | 335° |
| 2026-05-04 22:14 | 27.41895 | -80.78280 | 12996 ft | 390 kts | 337° |
| 2026-05-04 22:14 | 27.44456 | -80.79338 | 12996 ft | 391 kts | 337° |
| 2026-05-04 22:14 | 27.47028 | -80.80412 | 13001 ft | 391 kts | 337° |
| 2026-05-04 22:15 | 27.49571 | -80.81493 | 12999 ft | 391 kts | 337° |
| 2026-05-04 22:15 | 27.52075 | -80.82571 | 12994 ft | 391 kts | 336° |
| 2026-05-04 22:15 | 27.54627 | -80.83677 | 13007 ft | 391 kts | 336° |
| 2026-05-04 22:15 | 27.57177 | -80.84797 | 13008 ft | 391 kts | 335° |
| 2026-05-04 22:16 | 27.59642 | -80.86017 | 13016 ft | 390 kts | 333° |
| 2026-05-04 22:16 | 27.62106 | -80.87322 | 13005 ft | 390 kts | 332° |
| 2026-05-04 22:16 | 27.64494 | -80.88605 | 12868 ft | 370 kts | 332° |
| 2026-05-04 22:16 | 27.66785 | -80.89832 | 12537 ft | 355 kts | 332° |
| 2026-05-04 22:17 | 27.68951 | -80.90984 | 12140 ft | 342 kts | 332° |
| 2026-05-04 22:17 | 27.71093 | -80.92118 | 11721 ft | 336 kts | 332° |
| 2026-05-04 22:17 | 27.73183 | -80.93222 | 11311 ft | 333 kts | 332° |
| 2026-05-04 22:17 | 27.75278 | -80.94326 | 10908 ft | 330 kts | 332° |
| 2026-05-04 22:18 | 27.77351 | -80.95416 | 10613 ft | 322 kts | 331° |
| 2026-05-04 22:18 | 27.79336 | -80.96455 | 10431 ft | 303 kts | 332° |
| 2026-05-04 22:18 | 27.81192 | -80.97427 | 10304 ft | 292 kts | 332° |
| 2026-05-04 22:18 | 27.83011 | -80.98386 | 10179 ft | 284 kts | 331° |
| 2026-05-04 22:19 | 27.84791 | -80.99325 | 10058 ft | 276 kts | 331° |
| 2026-05-04 22:19 | 27.86506 | -81.00228 | 9827 ft | 273 kts | 331° |
| 2026-05-04 22:19 | 27.88208 | -81.01125 | 9541 ft | 272 kts | 331° |
| 2026-05-04 22:19 | 27.89925 | -81.02029 | 9262 ft | 271 kts | 331° |
| 2026-05-04 22:20 | 27.91634 | -81.02929 | 8961 ft | 270 kts | 331° |
| 2026-05-04 22:20 | 27.93343 | -81.03828 | 8677 ft | 269 kts | 332° |
| 2026-05-04 22:20 | 27.95068 | -81.04626 | 8387 ft | 269 kts | 335° |
| 2026-05-04 22:20 | 27.96832 | -81.05362 | 8108 ft | 269 kts | 336° |
| 2026-05-04 22:21 | 27.98573 | -81.06083 | 7827 ft | 269 kts | 336° |
| 2026-05-04 22:21 | 28.00333 | -81.06800 | 7547 ft | 268 kts | 335° |
| 2026-05-04 22:21 | 28.02064 | -81.07531 | 7275 ft | 268 kts | 336° |
| 2026-05-04 22:21 | 28.03819 | -81.08270 | 6991 ft | 268 kts | 337° |
| 2026-05-04 22:22 | 28.05559 | -81.09011 | 6712 ft | 267 kts | 336° |
| 2026-05-04 22:22 | 28.07298 | -81.09734 | 6552 ft | 263 kts | 337° |
| 2026-05-04 22:22 | 28.08989 | -81.10442 | 6418 ft | 257 kts | 336° |
| 2026-05-04 22:22 | 28.10647 | -81.11142 | 6294 ft | 251 kts | 336° |
| 2026-05-04 22:23 | 28.12271 | -81.11821 | 6173 ft | 244 kts | 336° |
| 2026-05-04 22:23 | 28.13822 | -81.12495 | 6061 ft | 237 kts | 334° |
| 2026-05-04 22:23 | 28.15349 | -81.13164 | 5911 ft | 232 kts | 333° |
| 2026-05-04 22:23 | 28.16512 | -81.14334 | 5724 ft | 223 kts | 294° |
| 2026-05-04 22:24 | 28.17104 | -81.15960 | 5569 ft | 224 kts | 289° |
| 2026-05-04 22:24 | 28.17679 | -81.17584 | 5345 ft | 225 kts | 290° |
| 2026-05-04 22:24 | 28.18267 | -81.19240 | 5126 ft | 225 kts | 291° |
| 2026-05-04 22:24 | 28.18843 | -81.20864 | 4911 ft | 222 kts | 290° |
| 2026-05-04 22:25 | 28.19411 | -81.22470 | 4661 ft | 217 kts | 291° |
| 2026-05-04 22:25 | 28.19968 | -81.24043 | 4431 ft | 214 kts | 291° |
| 2026-05-04 22:25 | 28.20532 | -81.25634 | 4199 ft | 218 kts | 294° |
| 2026-05-04 22:25 | 28.21242 | -81.27169 | 4014 ft | 220 kts | 314° |
| 2026-05-04 22:26 | 28.22528 | -81.27949 | 3801 ft | 212 kts | 357° |
| 2026-05-04 22:26 | 28.23991 | -81.28016 | 3549 ft | 209 kts | 360° |
| 2026-05-04 22:26 | 28.25409 | -81.28132 | 3279 ft | 202 kts | 4° |
| 2026-05-04 22:26 | 28.26791 | -81.28114 | 3019 ft | 195 kts | 6° |
| 2026-05-04 22:27 | 28.28130 | -81.28099 | 2790 ft | 191 kts | 4° |
| 2026-05-04 22:27 | 28.29442 | -81.28109 | 2526 ft | 188 kts | 4° |
| 2026-05-04 22:27 | 28.30748 | -81.28124 | 2272 ft | 186 kts | 4° |
| 2026-05-04 22:27 | 28.32037 | -81.28135 | 2029 ft | 180 kts | 5° |
| 2026-05-04 22:28 | 28.33242 | -81.28147 | 1794 ft | 171 kts | 4° |
| 2026-05-04 22:28 | 28.34404 | -81.28158 | 1589 ft | 162 kts | 6° |
| 2026-05-04 22:28 | 28.35497 | -81.28170 | 1368 ft | 152 kts | 6° |
| 2026-05-04 22:28 | 28.36517 | -81.28181 | 1170 ft | 145 kts | 6° |
| 2026-05-04 22:29 | 28.37529 | -81.28198 | 991 ft | 147 kts | 5° |
| 2026-05-04 22:29 | 28.38549 | -81.28219 | 734 ft | 146 kts | 8° |
| 2026-05-04 22:29 | 28.39565 | -81.28223 | 483 ft | 151 kts | 7° |
| 2026-05-04 22:29 | 28.40535 | -81.28224 | 366 ft | 157 kts | 5° |
| 2026-05-04 22:30 | 28.41460 | -81.28239 | 204 ft | 155 kts | 6° |
| 2026-05-04 22:30 | 28.42195 | -81.28243 | 113 ft | 152 kts | 6° |
| 2026-05-04 22:30 | 28.42560 | -81.28249 | 105 ft | 146 kts | 6° |
| 2026-05-04 22:30 | 28.43007 | -81.28235 | 99 ft | 118 kts | 4° |
| 2026-05-04 22:31 | 28.43282 | -81.28245 | 95 ft | 47 kts | 356° |
| 2026-05-04 22:31 | 28.43474 | -81.28277 | 95 ft | 18 kts | 335° |
| 2026-05-04 22:31 | 28.43536 | -81.28334 | 96 ft | 17 kts | 312° |
| 2026-05-04 22:31 | 28.43641 | -81.28376 | 95 ft | 16 kts | 0° |
| 2026-05-04 22:32 | 28.43749 | -81.28376 | 95 ft | 15 kts | 0° |
| 2026-05-04 22:32 | 28.43842 | -81.28378 | 97 ft | 12 kts | 354° |
| 2026-05-04 22:32 | 28.43876 | -81.28450 | 94 ft | 11 kts | 268° |
| 2026-05-04 22:32 | 28.43875 | -81.28519 | 98 ft | 7 kts | 268° |
| 2026-05-04 22:33 | 28.43874 | -81.28576 | 100 ft | 9 kts | 269° |
| 2026-05-04 22:33 | 28.43873 | -81.28684 | 102 ft | 17 kts | 269° |
| 2026-05-04 22:33 | 28.43872 | -81.28816 | 108 ft | 17 kts | 271° |
| 2026-05-04 22:33 | 28.43871 | -81.28965 | 106 ft | 22 kts | 268° |
| 2026-05-04 22:34 | 28.43869 | -81.29126 | 104 ft | 18 kts | 270° |
| 2026-05-04 22:34 | 28.43870 | -81.29206 | 99 ft | 0 kts | 270° |
| 2026-05-04 22:34 | 28.43870 | -81.29207 | 99 ft | 0 kts | 270° |
| 2026-05-04 22:34 | 28.43870 | -81.29210 | 99 ft | 0 kts | 270° |
| 2026-05-04 22:35 | 28.43870 | -81.29212 | 99 ft | 0 kts | 270° |
| 2026-05-04 22:35 | 28.43870 | -81.29213 | 99 ft | 0 kts | 270° |
| 2026-05-04 22:35 | 28.43870 | -81.29214 | 99 ft | 0 kts | 270° |
| 2026-05-04 22:39 | 28.43870 | -81.29219 | 96 ft | 0 kts | 270° |
| 2026-05-04 22:39 | 28.43869 | -81.29226 | 95 ft | 3 kts | 261° |
| 2026-05-04 22:40 | 28.43843 | -81.29256 | 96 ft | 9 kts | 203° |
| 2026-05-04 22:40 | 28.43783 | -81.29263 | 98 ft | 12 kts | 180° |
| 2026-05-04 22:40 | 28.43708 | -81.29263 | 97 ft | 12 kts | 179° |
| 2026-05-04 22:40 | 28.43633 | -81.29262 | 98 ft | 12 kts | 179° |
| 2026-05-04 22:41 | 28.43563 | -81.29279 | 98 ft | 11 kts | 229° |
| 2026-05-04 22:41 | 28.43552 | -81.29369 | 98 ft | 13 kts | 270° |
| 2026-05-04 22:41 | 28.43552 | -81.29465 | 97 ft | 13 kts | 269° |
| 2026-05-04 22:41 | 28.43551 | -81.29557 | 99 ft | 13 kts | 269° |
| 2026-05-04 22:42 | 28.43550 | -81.29644 | 96 ft | 13 kts | 269° |
| 2026-05-04 22:42 | 28.43550 | -81.29748 | 96 ft | 14 kts | 269° |
| 2026-05-04 22:42 | 28.43549 | -81.29820 | 96 ft | 6 kts | 270° |
| 2026-05-04 22:42 | 28.43546 | -81.29868 | 95 ft | 6 kts | 257° |
| 2026-05-04 22:43 | 28.43535 | -81.29914 | 94 ft | 6 kts | 255° |
| 2026-05-04 22:43 | 28.43532 | -81.29926 | 94 ft | 0 kts | 255° |
| 2026-05-04 22:45 | 28.43531 | -81.29931 | 94 ft | 2 kts | 256° |
| 2026-05-04 22:46 | 28.43527 | -81.29951 | 94 ft | 3 kts | 258° |
| 2026-05-04 22:46 | 28.43521 | -81.29983 | 96 ft | 5 kts | 258° |
| 2026-05-04 22:46 | 28.43514 | -81.30016 | 94 ft | 2 kts | 257° |
| 2026-05-04 22:46 | 28.43512 | -81.30028 | 95 ft | 2 kts | 257° |
| 2026-05-04 22:47 | 28.43509 | -81.30040 | 96 ft | 2 kts | 257° |
| 2026-05-04 22:47 | 28.43509 | -81.30044 | 95 ft | 0 kts | 257° |